Scottish Airport Reports

Civil airfields updated at H+20 and H+50
RAF airfields updated at H+50 only

EGPD - Aberdeen
Distance from station: NNE 19mi, 31km
Updated: 22/02/2018 21:50
Partly cloudy
Partly cloudy
 Wind from S
Wind: S 7 mph , 11 km/h
Temperature: 1°C
Wind Chill: -2°C
Dew Point: -1°C
Humidity: 87%
Barometer: 1022 hPa
Clouds: Partly cloudy
Visibility: 6 miles , 10 km
Cloud details: Partly cloudy 3800 ft
2018/02/22 21:50 EGPD 222150Z AUTO 19006KT 9999 SCT038 01/M01 Q1022 NOSIG
EGPN - Dundee
Distance from station: SW 41mi, 66km
Updated: 22/02/2018 20:50
NOT Current
Few Clouds
Few Clouds
 Wind from S
Wind: S 7 mph , 11 km/h
Temperature: 3°C
Wind Chill: 0°C
Dew Point: 0°C
Humidity: 81%
Barometer: 1022 hPa
Clouds: Few Clouds
Visibility: 6 miles , 10 km
Cloud details: Few Clouds 4500 ft
2018/02/22 20:50 EGPN 222050Z 17006KT 9999 FEW045 03/M00 Q1022
 
EGQS - RAF Lossiemouth
Distance from station: NNW 63mi, 102km
Updated: 22/02/2018 21:50
Clear
Clear
 Wind from SSE
Wind: SSE 10 mph , 17 km/h
Temperature: 3°C
Wind Chill: -1°C
Dew Point: -1°C
Humidity: 75%
Barometer: 1020 hPa
Summary: Clear
Visibility: greater than 7 miles , 10 km
2018/02/22 21:50 EGQS 222150Z 15009KT CAVOK 03/M01 Q1020 BLU
EGPE - Inverness
Distance from station: WNW 73mi, 117km
Updated: 22/02/2018 21:50
Clear
Clear
 Wind from S
Wind: S 10 mph , 17 km/h
Temperature: 4°C
Wind Chill: 0°C
Dew Point: 0°C
Humidity: 75%
Barometer: 1020 hPa
Clouds: Clear
Visibility: 6 miles , 10 km
2018/02/22 21:50 EGPE 222150Z AUTO 18009KT 9999 NCD 04/M00 Q1020
 
EGPH - Edinburgh
Distance from station: SSW 77mi, 125km
Updated: 22/02/2018 21:50
Clear
Clear
 Wind from varies
Wind: varies 1 mph , 2 km/h
Temperature: -2°C
Dew Point: -3°C
Humidity: 93%
Barometer: 1022 hPa
Summary: Clear
Visibility: greater than 7 miles , 10 km
2018/02/22 21:50 EGPH 222150Z VRB01KT CAVOK M02/M03 Q1022
EGPC - Wick
Distance from station: NNW 107mi, 172km
Updated: 22/02/2018 21:50
Clear
Clear
 Wind from S
Wind: S 18 mph , 30 km/h
Temperature: 5°C
Wind Chill: 0°C
Dew Point: 2°C
Humidity: 81%
Barometer: 1019 hPa
Clouds: Clear
Visibility: 6 miles , 10 km
2018/02/22 21:50 EGPC 222150Z AUTO 19016KT 9999 NCD 05/02 Q1019
 
EGPF - Glasgow
Distance from station: SW 107mi, 172km
Updated: 22/02/2018 21:50
Clear
Clear
 Wind from ESE
Wind: ESE 6 mph , 9 km/h
Temperature: 2°C
Wind Chill: -1°C
Dew Point: -2°C
Humidity: 75%
Barometer: 1022 hPa
Clouds: Clear
Visibility: 6 miles , 10 km
2018/02/22 21:50 EGPF 222150Z AUTO 11005KT 060V140 9999 NCD 02/M02 Q1022
EGPK - Prestwick
Distance from station: SW 130mi, 209km
Updated: 22/02/2018 21:50
Few Clouds
Few Clouds
 Wind from SE
Wind: SE 6 mph , 9 km/h, Gust: 17 mph , 28 km/h
Temperature: 2°C
Wind Chill: -1°C
Dew Point: -1°C
Humidity: 81%
Barometer: 1022 hPa
Clouds: Few Clouds
Visibility: 6 miles , 10 km
Cloud details: Few Clouds 4600 ft
2018/02/22 21:50 EGPK 222150Z 13005G15KT 9999 FEW046 02/M01 Q1022
 
EGPA - Kirkwall, Orkney
Distance from station: N 140mi, 225km
Updated: 22/02/2018 21:50
Clear
Clear
 Wind from S
Wind: S 16 mph , 26 km/h
Temperature: 5°C
Wind Chill: 1°C
Dew Point: 2°C
Humidity: 81%
Barometer: 1019 hPa
Clouds: Clear
Visibility: 6 miles , 10 km
2018/02/22 21:50 EGPA 222150Z AUTO 18014KT 9999 NCD 05/02 Q1019
EGPO - Stornoway, Outer Hebrides
Distance from station: WNW 169mi, 273km
Updated: 22/02/2018 21:50
Mostly cloudy
Mostly cloudy
 Wind from S
Wind: S 24 mph , 39 km/h
Temperature: 6°C
Wind Chill: 1°C
Dew Point: 3°C
Humidity: 81%
Barometer: 1016 hPa
Clouds: Mostly cloudy
Visibility: 6 miles , 10 km
Cloud details: Mostly cloudy 2000 ft
2018/02/22 21:50 EGPO 222150Z AUTO 18021KT 9999 BKN020/// 06/03 Q1016
 
EGPI - Islay, Inner Hebrides
Distance from station: WSW 172mi, 276km
Updated: 22/02/2018 21:50
Clear
Clear
 Wind from SSE
Wind: SSE 18 mph , 30 km/h
Temperature: 5°C
Wind Chill: 0°C
Dew Point: 3°C
Humidity: 87%
Barometer: 1019 hPa
Clouds: Clear
Visibility: 6 miles , 10 km
2018/02/22 21:50 EGPI 222150Z AUTO 16016KT 9999 NCD 05/03 Q1019
EGPU - Tiree, Inner Hebrides
Distance from station: W 172mi, 276km
Updated: 22/02/2018 21:50
Few Clouds
Few Clouds
 Wind from SSE
Wind: SSE 29 mph , 46 km/h
Temperature: 6°C
Wind Chill: 1°C
Dew Point: 4°C
Humidity: 87%
Barometer: 1017 hPa
Clouds: Few Clouds
Visibility: 6 miles , 10 km
Cloud details: Few Clouds 1700 ft
2018/02/22 21:50 EGPU 222150Z AUTO 16025KT 9999 FEW017/// 06/04 Q1017
 
EGPB - Sumburgh, Shetland
Distance from station: NNE 208mi, 332km
Updated: 22/02/2018 21:50
Partly cloudy
Partly cloudy
 Wind from S
Wind: S 21 mph , 33 km/h
Temperature: 5°C
Wind Chill: 0°C
Dew Point: 2°C
Humidity: 81%
Barometer: 1020 hPa
Clouds: Partly cloudy
Visibility: 6 miles , 10 km
Cloud details: Few Clouds 1900 ft
Partly cloudy 4800 ft
2018/02/22 21:50 EGPB 222150Z AUTO 19018KT 9999 FEW019/// SCT048/// 05/02 Q1020
EGPM - Scatsa, Shetland
Distance from station: NNE 245mi, 392km
Updated: 22/02/2018 21:50
Partly cloudy
Partly cloudy
 Wind from S
Wind: S 17 mph , 28 km/h
Temperature: 4°C
Wind Chill: -1°C
Dew Point: 2°C
Humidity: 87%
Barometer: 1020 hPa
Clouds: Partly cloudy
Visibility: 6 miles , 10 km
Cloud details: Few Clouds 1900 ft
Partly cloudy 4700 ft
2018/02/22 21:50 EGPM 222150Z AUTO 18015KT 9999 FEW019/// SCT047/// 04/02 Q1020
-->